sensor_id;sensor_type;location;lat;lon;timestamp;P1;durP1;ratioP1;P2;durP2;ratioP2
19495;SDS011;9888;48.606;9.630;2022-12-11T00:01:41;21.90;;;9.47;;
19495;SDS011;9888;48.606;9.630;2022-12-11T00:04:08;23.60;;;9.60;;
19495;SDS011;9888;48.606;9.630;2022-12-11T00:06:36;22.60;;;9.90;;
19495;SDS011;9888;48.606;9.630;2022-12-11T00:09:03;23.30;;;9.10;;
19495;SDS011;9888;48.606;9.630;2022-12-11T00:11:31;20.53;;;7.80;;
19495;SDS011;9888;48.606;9.630;2022-12-11T00:13:58;24.52;;;10.10;;
19495;SDS011;9888;48.606;9.630;2022-12-11T00:16:26;21.60;;;9.30;;
19495;SDS011;9888;48.606;9.630;2022-12-11T00:18:54;26.03;;;10.93;;
19495;SDS011;9888;48.606;9.630;2022-12-11T00:24:39;27.03;;;12.07;;
19495;SDS011;9888;48.606;9.630;2022-12-11T00:30:06;29.07;;;12.27;;
19495;SDS011;9888;48.606;9.630;2022-12-11T00:32:33;24.17;;;10.33;;
19495;SDS011;9888;48.606;9.630;2022-12-11T00:35:01;25.70;;;11.30;;
19495;SDS011;9888;48.606;9.630;2022-12-11T00:37:33;26.40;;;12.07;;
19495;SDS011;9888;48.606;9.630;2022-12-11T00:39:59;26.90;;;12.63;;
19495;SDS011;9888;48.606;9.630;2022-12-11T00:42:27;30.60;;;12.53;;
19495;SDS011;9888;48.606;9.630;2022-12-11T00:44:54;29.50;;;13.90;;
19495;SDS011;9888;48.606;9.630;2022-12-11T00:47:21;32.07;;;13.50;;
19495;SDS011;9888;48.606;9.630;2022-12-11T00:49:48;28.30;;;12.30;;
19495;SDS011;9888;48.606;9.630;2022-12-11T00:52:15;26.13;;;11.80;;
19495;SDS011;9888;48.606;9.630;2022-12-11T00:54:42;32.27;;;14.40;;
19495;SDS011;9888;48.606;9.630;2022-12-11T00:57:08;29.70;;;11.20;;
19495;SDS011;9888;48.606;9.630;2022-12-11T00:59:35;29.20;;;13.20;;
19495;SDS011;9888;48.606;9.630;2022-12-11T01:02:03;26.53;;;11.90;;
19495;SDS011;9888;48.606;9.630;2022-12-11T01:04:30;30.47;;;12.27;;
19495;SDS011;9888;48.606;9.630;2022-12-11T01:06:57;27.07;;;13.00;;
19495;SDS011;9888;48.606;9.630;2022-12-11T01:09:23;26.47;;;11.83;;
19495;SDS011;9888;48.606;9.630;2022-12-11T01:12:12;30.57;;;10.93;;
19495;SDS011;9888;48.606;9.630;2022-12-11T01:14:40;23.30;;;10.03;;
19495;SDS011;9888;48.606;9.630;2022-12-11T01:17:07;29.37;;;11.47;;
19495;SDS011;9888;48.606;9.630;2022-12-11T01:19:34;24.27;;;10.37;;
19495;SDS011;9888;48.606;9.630;2022-12-11T01:22:01;25.70;;;10.83;;
19495;SDS011;9888;48.606;9.630;2022-12-11T01:24:29;25.10;;;9.30;;
19495;SDS011;9888;48.606;9.630;2022-12-11T01:26:57;24.53;;;9.87;;
19495;SDS011;9888;48.606;9.630;2022-12-11T01:29:24;21.92;;;10.30;;
19495;SDS011;9888;48.606;9.630;2022-12-11T01:31:51;18.67;;;8.37;;
19495;SDS011;9888;48.606;9.630;2022-12-11T01:34:18;20.60;;;10.30;;
19495;SDS011;9888;48.606;9.630;2022-12-11T01:36:46;22.53;;;9.87;;
19495;SDS011;9888;48.606;9.630;2022-12-11T01:49:03;17.97;;;7.13;;
19495;SDS011;9888;48.606;9.630;2022-12-11T01:51:41;19.23;;;7.27;;
19495;SDS011;9888;48.606;9.630;2022-12-11T01:54:17;16.97;;;6.57;;
19495;SDS011;9888;48.606;9.630;2022-12-11T01:56:47;16.53;;;7.00;;
19495;SDS011;9888;48.606;9.630;2022-12-11T01:59:17;15.73;;;6.68;;
19495;SDS011;9888;48.606;9.630;2022-12-11T02:01:49;15.13;;;6.83;;
19495;SDS011;9888;48.606;9.630;2022-12-11T02:04:24;14.30;;;5.63;;
19495;SDS011;9888;48.606;9.630;2022-12-11T02:06:54;18.45;;;7.10;;
19495;SDS011;9888;48.606;9.630;2022-12-11T02:09:23;14.03;;;5.97;;
19495;SDS011;9888;48.606;9.630;2022-12-11T02:12:12;19.10;;;7.93;;
19495;SDS011;9888;48.606;9.630;2022-12-11T02:15:09;20.53;;;7.83;;
19495;SDS011;9888;48.606;9.630;2022-12-11T02:17:47;17.02;;;7.15;;
19495;SDS011;9888;48.606;9.630;2022-12-11T02:20:25;19.60;;;8.40;;
19495;SDS011;9888;48.606;9.630;2022-12-11T02:31:21;18.27;;;8.20;;
19495;SDS011;9888;48.606;9.630;2022-12-11T02:34:19;14.50;;;5.47;;
19495;SDS011;9888;48.606;9.630;2022-12-11T02:37:01;23.45;;;8.88;;
19495;SDS011;9888;48.606;9.630;2022-12-11T02:39:32;20.77;;;8.30;;
19495;SDS011;9888;48.606;9.630;2022-12-11T02:42:05;23.40;;;9.60;;
19495;SDS011;9888;48.606;9.630;2022-12-11T02:44:34;22.07;;;9.20;;
19495;SDS011;9888;48.606;9.630;2022-12-11T02:47:02;27.43;;;11.40;;
19495;SDS011;9888;48.606;9.630;2022-12-11T02:49:32;21.43;;;9.60;;
19495;SDS011;9888;48.606;9.630;2022-12-11T02:52:05;29.75;;;12.55;;
19495;SDS011;9888;48.606;9.630;2022-12-11T02:54:38;30.80;;;12.80;;
19495;SDS011;9888;48.606;9.630;2022-12-11T02:57:16;23.23;;;7.17;;
19495;SDS011;9888;48.606;9.630;2022-12-11T03:00:08;23.33;;;10.00;;
19495;SDS011;9888;48.606;9.630;2022-12-11T03:02:37;26.57;;;10.70;;
19495;SDS011;9888;48.606;9.630;2022-12-11T03:05:06;22.73;;;9.53;;
19495;SDS011;9888;48.606;9.630;2022-12-11T03:07:37;21.93;;;9.73;;
19495;SDS011;9888;48.606;9.630;2022-12-11T03:10:07;26.10;;;9.90;;
19495;SDS011;9888;48.606;9.630;2022-12-11T03:12:38;23.20;;;10.50;;
19495;SDS011;9888;48.606;9.630;2022-12-11T03:15:10;24.33;;;10.57;;
19495;SDS011;9888;48.606;9.630;2022-12-11T03:23:07;25.03;;;10.50;;
19495;SDS011;9888;48.606;9.630;2022-12-11T03:25:52;25.23;;;9.47;;
19495;SDS011;9888;48.606;9.630;2022-12-11T03:31:04;26.93;;;11.27;;
19495;SDS011;9888;48.606;9.630;2022-12-11T03:33:46;25.60;;;10.00;;
19495;SDS011;9888;48.606;9.630;2022-12-11T03:36:24;23.07;;;9.03;;
19495;SDS011;9888;48.606;9.630;2022-12-11T03:38:58;20.90;;;8.77;;
19495;SDS011;9888;48.606;9.630;2022-12-11T03:41:31;26.13;;;7.70;;
19495;SDS011;9888;48.606;9.630;2022-12-11T03:44:01;20.83;;;7.88;;
19495;SDS011;9888;48.606;9.630;2022-12-11T03:46:30;16.53;;;7.13;;
19495;SDS011;9888;48.606;9.630;2022-12-11T03:49:02;19.00;;;7.50;;
19495;SDS011;9888;48.606;9.630;2022-12-11T03:51:42;19.03;;;7.23;;
19495;SDS011;9888;48.606;9.630;2022-12-11T03:54:13;14.50;;;6.18;;
19495;SDS011;9888;48.606;9.630;2022-12-11T03:56:43;18.38;;;6.75;;
19495;SDS011;9888;48.606;9.630;2022-12-11T03:59:12;15.93;;;7.03;;
19495;SDS011;9888;48.606;9.630;2022-12-11T04:01:39;19.90;;;8.77;;
19495;SDS011;9888;48.606;9.630;2022-12-11T04:04:06;19.60;;;8.60;;
19495;SDS011;9888;48.606;9.630;2022-12-11T04:06:36;23.88;;;10.32;;
19495;SDS011;9888;48.606;9.630;2022-12-11T04:09:04;10.57;;;4.75;;
19495;SDS011;9888;48.606;9.630;2022-12-11T04:11:31;19.77;;;6.93;;
19495;SDS011;9888;48.606;9.630;2022-12-11T04:14:08;15.88;;;6.00;;
19495;SDS011;9888;48.606;9.630;2022-12-11T04:16:56;16.30;;;6.60;;
19495;SDS011;9888;48.606;9.630;2022-12-11T04:19:25;20.20;;;8.60;;
19495;SDS011;9888;48.606;9.630;2022-12-11T04:22:10;20.30;;;8.00;;
19495;SDS011;9888;48.606;9.630;2022-12-11T04:24:57;18.50;;;8.57;;
19495;SDS011;9888;48.606;9.630;2022-12-11T04:27:24;19.80;;;7.90;;
19495;SDS011;9888;48.606;9.630;2022-12-11T04:30:12;16.00;;;7.10;;
19495;SDS011;9888;48.606;9.630;2022-12-11T04:32:42;19.58;;;7.40;;
19495;SDS011;9888;48.606;9.630;2022-12-11T04:35:10;17.77;;;7.00;;
19495;SDS011;9888;48.606;9.630;2022-12-11T04:37:38;16.50;;;7.88;;
19495;SDS011;9888;48.606;9.630;2022-12-11T04:40:08;16.80;;;6.57;;
19495;SDS011;9888;48.606;9.630;2022-12-11T04:42:37;18.33;;;7.32;;
19495;SDS011;9888;48.606;9.630;2022-12-11T04:48:04;16.77;;;7.20;;
19495;SDS011;9888;48.606;9.630;2022-12-11T04:50:31;15.17;;;7.10;;
19495;SDS011;9888;48.606;9.630;2022-12-11T04:52:59;17.63;;;7.40;;
19495;SDS011;9888;48.606;9.630;2022-12-11T04:55:27;17.73;;;7.20;;
19495;SDS011;9888;48.606;9.630;2022-12-11T04:57:54;15.48;;;7.40;;
19495;SDS011;9888;48.606;9.630;2022-12-11T05:00:22;17.60;;;7.70;;
19495;SDS011;9888;48.606;9.630;2022-12-11T05:02:50;14.75;;;7.38;;
19495;SDS011;9888;48.606;9.630;2022-12-11T05:05:18;16.80;;;6.83;;
19495;SDS011;9888;48.606;9.630;2022-12-11T05:07:46;15.43;;;8.43;;
19495;SDS011;9888;48.606;9.630;2022-12-11T05:10:14;17.87;;;7.30;;
19495;SDS011;9888;48.606;9.630;2022-12-11T05:12:46;16.50;;;7.40;;
19495;SDS011;9888;48.606;9.630;2022-12-11T05:15:14;17.60;;;8.07;;
19495;SDS011;9888;48.606;9.630;2022-12-11T05:17:41;15.82;;;7.30;;
19495;SDS011;9888;48.606;9.630;2022-12-11T05:20:15;17.70;;;7.77;;
19495;SDS011;9888;48.606;9.630;2022-12-11T05:22:43;15.23;;;7.27;;
19495;SDS011;9888;48.606;9.630;2022-12-11T05:25:10;17.53;;;7.57;;
19495;SDS011;9888;48.606;9.630;2022-12-11T05:27:38;17.83;;;7.97;;
19495;SDS011;9888;48.606;9.630;2022-12-11T05:30:06;14.37;;;7.10;;
19495;SDS011;9888;48.606;9.630;2022-12-11T05:32:37;17.87;;;8.00;;
19495;SDS011;9888;48.606;9.630;2022-12-11T05:35:04;16.60;;;6.95;;
19495;SDS011;9888;48.606;9.630;2022-12-11T05:37:32;20.10;;;8.23;;
19495;SDS011;9888;48.606;9.630;2022-12-11T05:39:58;16.33;;;7.40;;
19495;SDS011;9888;48.606;9.630;2022-12-11T05:42:26;18.33;;;8.40;;
19495;SDS011;9888;48.606;9.630;2022-12-11T05:44:53;19.60;;;8.23;;
19495;SDS011;9888;48.606;9.630;2022-12-11T05:47:20;17.13;;;7.80;;
19495;SDS011;9888;48.606;9.630;2022-12-11T05:49:59;19.15;;;8.30;;
19495;SDS011;9888;48.606;9.630;2022-12-11T05:59:18;16.33;;;7.17;;
19495;SDS011;9888;48.606;9.630;2022-12-11T06:18:20;15.80;;;7.23;;
19495;SDS011;9888;48.606;9.630;2022-12-11T06:24:10;14.70;;;6.80;;
19495;SDS011;9888;48.606;9.630;2022-12-11T06:26:41;17.90;;;7.17;;
19495;SDS011;9888;48.606;9.630;2022-12-11T06:29:08;13.30;;;5.60;;
19495;SDS011;9888;48.606;9.630;2022-12-11T06:34:57;13.50;;;6.23;;
19495;SDS011;9888;48.606;9.630;2022-12-11T06:37:24;21.00;;;6.93;;
19495;SDS011;9888;48.606;9.630;2022-12-11T06:39:51;19.65;;;6.53;;
19495;SDS011;9888;48.606;9.630;2022-12-11T06:42:18;15.73;;;6.38;;
19495;SDS011;9888;48.606;9.630;2022-12-11T06:44:45;15.50;;;6.35;;
19495;SDS011;9888;48.606;9.630;2022-12-11T06:47:11;13.88;;;6.05;;
19495;SDS011;9888;48.606;9.630;2022-12-11T06:49:38;14.70;;;6.43;;
19495;SDS011;9888;48.606;9.630;2022-12-11T06:52:05;16.30;;;5.00;;
19495;SDS011;9888;48.606;9.630;2022-12-11T06:54:33;17.43;;;5.20;;
19495;SDS011;9888;48.606;9.630;2022-12-11T06:57:00;14.23;;;5.05;;
19495;SDS011;9888;48.606;9.630;2022-12-11T06:59:27;12.60;;;5.60;;
19495;SDS011;9888;48.606;9.630;2022-12-11T07:01:53;12.45;;;4.85;;
19495;SDS011;9888;48.606;9.630;2022-12-11T07:04:21;16.17;;;5.40;;
19495;SDS011;9888;48.606;9.630;2022-12-11T07:06:52;12.57;;;4.72;;
19495;SDS011;9888;48.606;9.630;2022-12-11T07:09:18;12.27;;;4.50;;
19495;SDS011;9888;48.606;9.630;2022-12-11T07:21:52;8.38;;;3.47;;
19495;SDS011;9888;48.606;9.630;2022-12-11T07:24:20;10.98;;;3.33;;
19495;SDS011;9888;48.606;9.630;2022-12-11T07:26:47;13.98;;;3.70;;
19495;SDS011;9888;48.606;9.630;2022-12-11T07:29:15;13.80;;;3.95;;
19495;SDS011;9888;48.606;9.630;2022-12-11T07:31:41;9.60;;;2.97;;
19495;SDS011;9888;48.606;9.630;2022-12-11T07:34:10;12.05;;;3.53;;
19495;SDS011;9888;48.606;9.630;2022-12-11T07:36:38;10.52;;;3.63;;
19495;SDS011;9888;48.606;9.630;2022-12-11T07:39:05;10.50;;;3.40;;
19495;SDS011;9888;48.606;9.630;2022-12-11T07:41:33;10.13;;;3.45;;
19495;SDS011;9888;48.606;9.630;2022-12-11T07:44:01;10.93;;;3.75;;
19495;SDS011;9888;48.606;9.630;2022-12-11T07:46:29;12.60;;;4.40;;
19495;SDS011;9888;48.606;9.630;2022-12-11T07:48:57;12.75;;;4.70;;
19495;SDS011;9888;48.606;9.630;2022-12-11T07:51:31;12.38;;;4.45;;
19495;SDS011;9888;48.606;9.630;2022-12-11T07:54:03;9.95;;;3.65;;
19495;SDS011;9888;48.606;9.630;2022-12-11T07:56:32;14.85;;;4.47;;
19495;SDS011;9888;48.606;9.630;2022-12-11T07:59:00;14.98;;;4.68;;
19495;SDS011;9888;48.606;9.630;2022-12-11T08:01:30;10.38;;;3.67;;
19495;SDS011;9888;48.606;9.630;2022-12-11T08:04:00;16.98;;;5.13;;
19495;SDS011;9888;48.606;9.630;2022-12-11T08:06:30;11.23;;;4.07;;
19495;SDS011;9888;48.606;9.630;2022-12-11T08:08:59;13.88;;;5.13;;
19495;SDS011;9888;48.606;9.630;2022-12-11T08:11:26;14.45;;;5.15;;
19495;SDS011;9888;48.606;9.630;2022-12-11T08:13:54;19.13;;;6.60;;
19495;SDS011;9888;48.606;9.630;2022-12-11T08:16:24;14.07;;;5.05;;
19495;SDS011;9888;48.606;9.630;2022-12-11T08:18:50;21.33;;;8.18;;
19495;SDS011;9888;48.606;9.630;2022-12-11T08:21:19;18.00;;;7.53;;
19495;SDS011;9888;48.606;9.630;2022-12-11T08:23:48;16.30;;;6.63;;
19495;SDS011;9888;48.606;9.630;2022-12-11T08:26:17;19.17;;;7.17;;
19495;SDS011;9888;48.606;9.630;2022-12-11T08:28:51;17.03;;;7.50;;
19495;SDS011;9888;48.606;9.630;2022-12-11T08:31:19;17.90;;;7.30;;
19495;SDS011;9888;48.606;9.630;2022-12-11T08:33:48;17.33;;;7.43;;
19495;SDS011;9888;48.606;9.630;2022-12-11T08:36:17;19.53;;;7.00;;
19495;SDS011;9888;48.606;9.630;2022-12-11T08:38:46;21.93;;;7.03;;
19495;SDS011;9888;48.606;9.630;2022-12-11T08:41:15;16.23;;;7.37;;
19495;SDS011;9888;48.606;9.630;2022-12-11T08:43:44;17.70;;;7.80;;
19495;SDS011;9888;48.606;9.630;2022-12-11T08:46:13;18.57;;;8.53;;
19495;SDS011;9888;48.606;9.630;2022-12-11T08:48:41;19.87;;;8.77;;
19495;SDS011;9888;48.606;9.630;2022-12-11T08:51:12;21.70;;;8.53;;
19495;SDS011;9888;48.606;9.630;2022-12-11T08:53:47;23.23;;;8.03;;
19495;SDS011;9888;48.606;9.630;2022-12-11T08:56:17;18.10;;;8.77;;
19495;SDS011;9888;48.606;9.630;2022-12-11T08:58:46;22.47;;;8.97;;
19495;SDS011;9888;48.606;9.630;2022-12-11T09:01:20;19.20;;;8.57;;
19495;SDS011;9888;48.606;9.630;2022-12-11T09:03:49;18.40;;;9.20;;
19495;SDS011;9888;48.606;9.630;2022-12-11T09:06:19;18.37;;;8.53;;
19495;SDS011;9888;48.606;9.630;2022-12-11T09:08:49;17.50;;;7.30;;
19495;SDS011;9888;48.606;9.630;2022-12-11T09:18:00;14.70;;;6.00;;
19495;SDS011;9888;48.606;9.630;2022-12-11T09:26:46;19.40;;;6.90;;
19495;SDS011;9888;48.606;9.630;2022-12-11T09:32:23;15.57;;;6.70;;
19495;SDS011;9888;48.606;9.630;2022-12-11T09:48:28;18.50;;;7.37;;
19495;SDS011;9888;48.606;9.630;2022-12-11T10:01:26;12.90;;;5.40;;
19495;SDS011;9888;48.606;9.630;2022-12-11T10:04:49;11.23;;;4.00;;
19495;SDS011;9888;48.606;9.630;2022-12-11T10:14:27;14.90;;;6.60;;
19495;SDS011;9888;48.606;9.630;2022-12-11T10:27:21;14.93;;;6.33;;
19495;SDS011;9888;48.606;9.630;2022-12-11T10:29:56;12.57;;;4.97;;
19495;SDS011;9888;48.606;9.630;2022-12-11T10:39:20;12.47;;;4.60;;
19495;SDS011;9888;48.606;9.630;2022-12-11T10:45:14;11.73;;;5.63;;
19495;SDS011;9888;48.606;9.630;2022-12-11T10:47:46;17.90;;;5.80;;
19495;SDS011;9888;48.606;9.630;2022-12-11T10:57:14;14.40;;;5.80;;
19495;SDS011;9888;48.606;9.630;2022-12-11T11:06:31;14.17;;;6.30;;
19495;SDS011;9888;48.606;9.630;2022-12-11T11:12:43;15.60;;;5.90;;
19495;SDS011;9888;48.606;9.630;2022-12-11T11:45:48;11.03;;;4.27;;
19495;SDS011;9888;48.606;9.630;2022-12-11T11:58:25;14.33;;;4.57;;
19495;SDS011;9888;48.606;9.630;2022-12-11T12:01:31;14.97;;;4.93;;
19495;SDS011;9888;48.606;9.630;2022-12-11T12:14:12;13.10;;;4.60;;
19495;SDS011;9888;48.606;9.630;2022-12-11T12:21:45;10.67;;;3.93;;
19495;SDS011;9888;48.606;9.630;2022-12-11T12:24:28;11.60;;;4.37;;
19495;SDS011;9888;48.606;9.630;2022-12-11T12:46:28;11.93;;;4.20;;
19495;SDS011;9888;48.606;9.630;2022-12-11T12:49:02;11.40;;;4.40;;
19495;SDS011;9888;48.606;9.630;2022-12-11T12:51:34;16.00;;;5.77;;
19495;SDS011;9888;48.606;9.630;2022-12-11T12:54:02;17.10;;;6.20;;
19495;SDS011;9888;48.606;9.630;2022-12-11T12:56:33;14.50;;;6.00;;
19495;SDS011;9888;48.606;9.630;2022-12-11T12:59:17;21.33;;;6.37;;
19495;SDS011;9888;48.606;9.630;2022-12-11T13:01:53;14.50;;;6.63;;
19495;SDS011;9888;48.606;9.630;2022-12-11T13:04:32;14.40;;;6.37;;
19495;SDS011;9888;48.606;9.630;2022-12-11T13:10:04;11.97;;;5.50;;
19495;SDS011;9888;48.606;9.630;2022-12-11T13:16:40;15.63;;;5.80;;
19495;SDS011;9888;48.606;9.630;2022-12-11T13:19:38;14.77;;;4.90;;
19495;SDS011;9888;48.606;9.630;2022-12-11T13:25:15;13.80;;;4.90;;
19495;SDS011;9888;48.606;9.630;2022-12-11T13:28:17;13.53;;;5.77;;
19495;SDS011;9888;48.606;9.630;2022-12-11T13:31:04;14.23;;;5.77;;
19495;SDS011;9888;48.606;9.630;2022-12-11T13:33:49;14.80;;;5.10;;
19495;SDS011;9888;48.606;9.630;2022-12-11T13:36:40;15.53;;;4.83;;
19495;SDS011;9888;48.606;9.630;2022-12-11T13:39:25;12.80;;;5.77;;
19495;SDS011;9888;48.606;9.630;2022-12-11T13:42:03;13.37;;;4.40;;
19495;SDS011;9888;48.606;9.630;2022-12-11T13:44:33;15.83;;;5.43;;
19495;SDS011;9888;48.606;9.630;2022-12-11T13:47:05;13.93;;;5.13;;
19495;SDS011;9888;48.606;9.630;2022-12-11T13:49:39;17.07;;;5.33;;
19495;SDS011;9888;48.606;9.630;2022-12-11T13:52:19;11.80;;;5.20;;
19495;SDS011;9888;48.606;9.630;2022-12-11T13:54:48;13.80;;;5.60;;
19495;SDS011;9888;48.606;9.630;2022-12-11T13:57:24;15.83;;;5.83;;
19495;SDS011;9888;48.606;9.630;2022-12-11T13:59:54;17.73;;;7.07;;
19495;SDS011;9888;48.606;9.630;2022-12-11T14:02:34;14.17;;;5.43;;
19495;SDS011;9888;48.606;9.630;2022-12-11T14:05:08;20.80;;;6.03;;
19495;SDS011;9888;48.606;9.630;2022-12-11T14:07:37;18.83;;;6.70;;
19495;SDS011;9888;48.606;9.630;2022-12-11T14:10:29;12.83;;;4.90;;
19495;SDS011;9888;48.606;9.630;2022-12-11T14:15:46;16.63;;;6.57;;
19495;SDS011;9888;48.606;9.630;2022-12-11T14:18:14;15.03;;;5.97;;
19495;SDS011;9888;48.606;9.630;2022-12-11T14:21:04;19.70;;;6.10;;
19495;SDS011;9888;48.606;9.630;2022-12-11T14:23:49;18.97;;;6.93;;
19495;SDS011;9888;48.606;9.630;2022-12-11T14:26:34;12.20;;;5.23;;
19495;SDS011;9888;48.606;9.630;2022-12-11T14:29:24;16.63;;;7.07;;
19495;SDS011;9888;48.606;9.630;2022-12-11T14:32:03;20.33;;;7.47;;
19495;SDS011;9888;48.606;9.630;2022-12-11T14:38:35;19.63;;;7.37;;
19495;SDS011;9888;48.606;9.630;2022-12-11T14:44:23;14.27;;;6.40;;
19495;SDS011;9888;48.606;9.630;2022-12-11T14:47:16;18.07;;;7.40;;
19495;SDS011;9888;48.606;9.630;2022-12-11T14:49:50;18.20;;;6.43;;
19495;SDS011;9888;48.606;9.630;2022-12-11T14:52:45;15.73;;;5.57;;
19495;SDS011;9888;48.606;9.630;2022-12-11T14:55:28;14.27;;;5.10;;
19495;SDS011;9888;48.606;9.630;2022-12-11T14:58:11;17.50;;;5.23;;
19495;SDS011;9888;48.606;9.630;2022-12-11T15:00:54;16.40;;;7.03;;
19495;SDS011;9888;48.606;9.630;2022-12-11T15:03:38;12.80;;;4.80;;
19495;SDS011;9888;48.606;9.630;2022-12-11T15:23:17;15.57;;;7.50;;
19495;SDS011;9888;48.606;9.630;2022-12-11T15:25:52;14.23;;;5.60;;
19495;SDS011;9888;48.606;9.630;2022-12-11T15:28:24;18.83;;;6.63;;
19495;SDS011;9888;48.606;9.630;2022-12-11T15:31:06;18.07;;;7.13;;
19495;SDS011;9888;48.606;9.630;2022-12-11T15:33:54;14.07;;;5.38;;
19495;SDS011;9888;48.606;9.630;2022-12-11T15:36:34;18.97;;;7.00;;
19495;SDS011;9888;48.606;9.630;2022-12-11T15:39:02;14.77;;;6.40;;
19495;SDS011;9888;48.606;9.630;2022-12-11T15:41:32;20.60;;;7.63;;
19495;SDS011;9888;48.606;9.630;2022-12-11T15:44:01;17.37;;;7.67;;
19495;SDS011;9888;48.606;9.630;2022-12-11T15:46:34;19.07;;;7.67;;
19495;SDS011;9888;48.606;9.630;2022-12-11T15:49:04;21.00;;;8.73;;
19495;SDS011;9888;48.606;9.630;2022-12-11T15:51:39;19.67;;;7.80;;
19495;SDS011;9888;48.606;9.630;2022-12-11T15:54:12;18.20;;;7.63;;
19495;SDS011;9888;48.606;9.630;2022-12-11T15:56:46;19.27;;;9.13;;
19495;SDS011;9888;48.606;9.630;2022-12-11T15:59:14;18.30;;;8.70;;
19495;SDS011;9888;48.606;9.630;2022-12-11T16:01:42;17.13;;;7.23;;
19495;SDS011;9888;48.606;9.630;2022-12-11T16:04:09;22.60;;;8.80;;
19495;SDS011;9888;48.606;9.630;2022-12-11T16:06:36;21.10;;;9.10;;
19495;SDS011;9888;48.606;9.630;2022-12-11T16:09:09;22.37;;;10.13;;
19495;SDS011;9888;48.606;9.630;2022-12-11T16:11:36;22.20;;;8.80;;
19495;SDS011;9888;48.606;9.630;2022-12-11T16:14:03;24.42;;;10.82;;
19495;SDS011;9888;48.606;9.630;2022-12-11T16:16:30;24.08;;;10.60;;
19495;SDS011;9888;48.606;9.630;2022-12-11T16:19:01;22.97;;;10.53;;
19495;SDS011;9888;48.606;9.630;2022-12-11T16:21:28;28.90;;;11.33;;
19495;SDS011;9888;48.606;9.630;2022-12-11T16:23:55;23.50;;;10.20;;
19495;SDS011;9888;48.606;9.630;2022-12-11T16:26:23;22.50;;;10.20;;
19495;SDS011;9888;48.606;9.630;2022-12-11T16:28:51;27.30;;;11.07;;
19495;SDS011;9888;48.606;9.630;2022-12-11T16:31:18;24.23;;;9.73;;
19495;SDS011;9888;48.606;9.630;2022-12-11T16:33:46;22.83;;;9.80;;
19495;SDS011;9888;48.606;9.630;2022-12-11T16:36:13;23.90;;;10.35;;
19495;SDS011;9888;48.606;9.630;2022-12-11T16:38:47;27.53;;;11.30;;
19495;SDS011;9888;48.606;9.630;2022-12-11T16:41:14;25.50;;;11.27;;
19495;SDS011;9888;48.606;9.630;2022-12-11T16:43:41;22.60;;;10.37;;
19495;SDS011;9888;48.606;9.630;2022-12-11T16:46:08;35.93;;;12.17;;
19495;SDS011;9888;48.606;9.630;2022-12-11T16:48:36;41.43;;;12.70;;
19495;SDS011;9888;48.606;9.630;2022-12-11T16:51:04;25.03;;;11.17;;
19495;SDS011;9888;48.606;9.630;2022-12-11T16:53:34;27.30;;;11.80;;
19495;SDS011;9888;48.606;9.630;2022-12-11T16:56:03;22.73;;;11.90;;
19495;SDS011;9888;48.606;9.630;2022-12-11T16:58:30;23.47;;;10.17;;
19495;SDS011;9888;48.606;9.630;2022-12-11T17:00:58;24.00;;;10.60;;
19495;SDS011;9888;48.606;9.630;2022-12-11T17:03:30;26.63;;;12.27;;
19495;SDS011;9888;48.606;9.630;2022-12-11T17:05:57;23.10;;;10.07;;
19495;SDS011;9888;48.606;9.630;2022-12-11T17:08:26;24.60;;;12.30;;
19495;SDS011;9888;48.606;9.630;2022-12-11T17:10:53;25.33;;;12.60;;
19495;SDS011;9888;48.606;9.630;2022-12-11T17:13:20;23.40;;;11.57;;
19495;SDS011;9888;48.606;9.630;2022-12-11T17:15:48;25.23;;;10.60;;
19495;SDS011;9888;48.606;9.630;2022-12-11T17:18:16;25.33;;;10.80;;
19495;SDS011;9888;48.606;9.630;2022-12-11T17:20:43;25.63;;;11.40;;
19495;SDS011;9888;48.606;9.630;2022-12-11T17:23:22;26.17;;;10.77;;
19495;SDS011;9888;48.606;9.630;2022-12-11T17:42:18;20.10;;;8.47;;
19495;SDS011;9888;48.606;9.630;2022-12-11T17:44:45;23.57;;;8.40;;
19495;SDS011;9888;48.606;9.630;2022-12-11T17:47:12;21.93;;;9.23;;
19495;SDS011;9888;48.606;9.630;2022-12-11T17:49:42;23.13;;;9.53;;
19495;SDS011;9888;48.606;9.630;2022-12-11T17:52:09;22.10;;;9.30;;
19495;SDS011;9888;48.606;9.630;2022-12-11T17:54:36;24.37;;;10.60;;
19495;SDS011;9888;48.606;9.630;2022-12-11T17:57:06;24.80;;;10.83;;
19495;SDS011;9888;48.606;9.630;2022-12-11T17:59:43;26.33;;;11.70;;
19495;SDS011;9888;48.606;9.630;2022-12-11T18:02:26;24.73;;;10.60;;
19495;SDS011;9888;48.606;9.630;2022-12-11T18:08:16;24.30;;;10.17;;
19495;SDS011;9888;48.606;9.630;2022-12-11T18:10:50;24.50;;;10.10;;
19495;SDS011;9888;48.606;9.630;2022-12-11T18:13:18;23.17;;;9.30;;
19495;SDS011;9888;48.606;9.630;2022-12-11T18:15:57;22.00;;;9.57;;
19495;SDS011;9888;48.606;9.630;2022-12-11T18:18:27;20.90;;;8.70;;
19495;SDS011;9888;48.606;9.630;2022-12-11T18:20:54;22.40;;;9.40;;
19495;SDS011;9888;48.606;9.630;2022-12-11T18:23:23;22.77;;;9.00;;
19495;SDS011;9888;48.606;9.630;2022-12-11T18:25:50;20.67;;;9.20;;
19495;SDS011;9888;48.606;9.630;2022-12-11T18:28:18;22.85;;;8.70;;
19495;SDS011;9888;48.606;9.630;2022-12-11T18:30:45;23.05;;;8.77;;
19495;SDS011;9888;48.606;9.630;2022-12-11T18:33:13;20.73;;;8.60;;
19495;SDS011;9888;48.606;9.630;2022-12-11T18:35:40;22.50;;;8.55;;
19495;SDS011;9888;48.606;9.630;2022-12-11T18:38:09;19.77;;;7.43;;
19495;SDS011;9888;48.606;9.630;2022-12-11T18:40:37;19.35;;;7.90;;
19495;SDS011;9888;48.606;9.630;2022-12-11T18:43:05;18.30;;;7.50;;
19495;SDS011;9888;48.606;9.630;2022-12-11T18:45:34;22.50;;;8.10;;
19495;SDS011;9888;48.606;9.630;2022-12-11T18:48:06;22.55;;;8.45;;
19495;SDS011;9888;48.606;9.630;2022-12-11T18:50:34;22.23;;;8.20;;
19495;SDS011;9888;48.606;9.630;2022-12-11T18:53:00;23.08;;;9.45;;
19495;SDS011;9888;48.606;9.630;2022-12-11T18:55:28;21.45;;;8.40;;
19495;SDS011;9888;48.606;9.630;2022-12-11T18:57:54;21.77;;;7.75;;
19495;SDS011;9888;48.606;9.630;2022-12-11T19:00:21;22.15;;;7.63;;
19495;SDS011;9888;48.606;9.630;2022-12-11T19:02:49;22.70;;;8.98;;
19495;SDS011;9888;48.606;9.630;2022-12-11T19:05:16;21.30;;;8.82;;
19495;SDS011;9888;48.606;9.630;2022-12-11T19:07:43;19.55;;;8.45;;
19495;SDS011;9888;48.606;9.630;2022-12-11T19:10:10;25.50;;;10.52;;
19495;SDS011;9888;48.606;9.630;2022-12-11T19:12:37;23.48;;;10.05;;
19495;SDS011;9888;48.606;9.630;2022-12-11T19:15:07;24.83;;;9.38;;
19495;SDS011;9888;48.606;9.630;2022-12-11T19:17:35;24.17;;;10.20;;
19495;SDS011;9888;48.606;9.630;2022-12-11T19:20:04;23.73;;;9.87;;
19495;SDS011;9888;48.606;9.630;2022-12-11T19:22:31;19.70;;;8.63;;
19495;SDS011;9888;48.606;9.630;2022-12-11T19:24:58;21.23;;;8.83;;
19495;SDS011;9888;48.606;9.630;2022-12-11T19:27:25;20.45;;;8.00;;
19495;SDS011;9888;48.606;9.630;2022-12-11T19:29:52;21.52;;;8.35;;
19495;SDS011;9888;48.606;9.630;2022-12-11T19:32:19;21.52;;;8.43;;
19495;SDS011;9888;48.606;9.630;2022-12-11T19:34:47;25.20;;;9.35;;
19495;SDS011;9888;48.606;9.630;2022-12-11T19:37:17;20.07;;;8.43;;
19495;SDS011;9888;48.606;9.630;2022-12-11T19:39:44;19.90;;;8.77;;
19495;SDS011;9888;48.606;9.630;2022-12-11T19:42:12;24.08;;;10.07;;
19495;SDS011;9888;48.606;9.630;2022-12-11T19:47:30;24.70;;;8.87;;
19495;SDS011;9888;48.606;9.630;2022-12-11T19:49:57;22.85;;;8.65;;
19495;SDS011;9888;48.606;9.630;2022-12-11T19:52:30;24.17;;;8.48;;
19495;SDS011;9888;48.606;9.630;2022-12-11T19:55:07;18.67;;;8.48;;
19495;SDS011;9888;48.606;9.630;2022-12-11T20:00:36;26.00;;;9.00;;
19495;SDS011;9888;48.606;9.630;2022-12-11T20:03:03;22.08;;;8.05;;
19495;SDS011;9888;48.606;9.630;2022-12-11T20:05:31;21.10;;;7.75;;
19495;SDS011;9888;48.606;9.630;2022-12-11T20:07:58;19.88;;;8.55;;
19495;SDS011;9888;48.606;9.630;2022-12-11T20:10:26;16.77;;;7.05;;